createdAt,value
2017-07-02T00:00:22.670Z,0
2017-07-02T00:01:16.811Z,0
2017-07-02T00:02:10.770Z,0
2017-07-02T00:03:04.705Z,0
2017-07-02T00:03:53.889Z,0
2017-07-02T00:04:42.359Z,0
2017-07-02T00:05:29.858Z,0
2017-07-02T00:06:23.975Z,0
2017-07-02T00:07:23.907Z,0
2017-07-02T00:08:18.980Z,0
2017-07-02T00:09:14.285Z,0
2017-07-02T00:10:15.064Z,0
2017-07-02T00:11:15.162Z,0
2017-07-02T00:12:09.209Z,0
2017-07-02T00:13:03.263Z,0
2017-07-02T00:14:03.285Z,0
2017-07-02T00:15:03.227Z,0
2017-07-02T00:16:04.245Z,0
2017-07-02T00:17:04.389Z,0
2017-07-02T00:17:53.358Z,0
2017-07-02T00:18:47.396Z,0
2017-07-02T00:19:35.652Z,0
2017-07-02T00:20:29.546Z,0
2017-07-02T00:21:18.541Z,0
2017-07-02T00:22:13.595Z,0
2017-07-02T00:23:07.593Z,0
2017-07-02T00:23:56.059Z,0
2017-07-02T00:24:45.116Z,0
2017-07-02T00:25:32.840Z,0
2017-07-02T00:26:20.871Z,0
2017-07-02T00:27:09.908Z,0
2017-07-02T00:28:03.742Z,0
2017-07-02T00:28:57.993Z,0
2017-07-02T00:29:51.904Z,0
2017-07-02T00:30:52.033Z,0
2017-07-02T00:31:46.017Z,0
2017-07-02T00:32:41.135Z,0
2017-07-02T00:33:35.122Z,0
2017-07-02T00:34:29.112Z,0
2017-07-02T00:35:18.171Z,0
2017-07-02T00:36:06.227Z,0
2017-07-02T00:36:55.310Z,0
2017-07-02T00:37:44.256Z,0
2017-07-02T00:38:38.386Z,0
2017-07-02T00:39:33.934Z,0
2017-07-02T00:40:27.442Z,0
2017-07-02T00:41:21.568Z,0
2017-07-02T00:42:16.426Z,0
2017-07-02T00:43:11.617Z,0
2017-07-02T00:44:00.622Z,0
2017-07-02T00:44:49.650Z,0
2017-07-02T00:45:37.739Z,0
2017-07-02T00:46:25.734Z,0
2017-07-02T00:47:14.788Z,0
2017-07-02T00:48:02.785Z,0
2017-07-02T00:48:50.829Z,0
2017-07-02T00:49:38.857Z,0
2017-07-02T00:50:28.065Z,0
2017-07-02T00:51:15.851Z,0
2017-07-02T00:52:04.066Z,0
2017-07-02T00:52:53.027Z,0
2017-07-02T00:53:41.016Z,0
2017-07-02T00:54:29.057Z,0
2017-07-02T00:55:29.087Z,0
2017-07-02T00:56:29.188Z,0
2017-07-02T00:57:23.261Z,0
2017-07-02T00:58:23.385Z,0
2017-07-02T00:59:17.279Z,0
2017-07-02T01:00:06.389Z,0
2017-07-02T01:01:01.378Z,0
2017-07-02T01:02:01.430Z,0
2017-07-02T01:02:55.616Z,0
2017-07-02T01:03:44.525Z,0
2017-07-02T01:04:32.601Z,0
2017-07-02T01:05:21.683Z,0
2017-07-02T01:06:09.608Z,0
2017-07-02T01:06:57.662Z,0
2017-07-02T01:07:57.732Z,0
2017-07-02T01:08:57.715Z,0
2017-07-02T01:09:51.791Z,0
2017-07-02T01:10:52.921Z,0
2017-07-02T01:11:52.859Z,0
2017-07-02T01:12:46.928Z,0
2017-07-02T01:13:42.114Z,0
2017-07-02T01:14:30.919Z,0
2017-07-02T01:15:19.043Z,0
2017-07-02T01:16:08.147Z,0
2017-07-02T01:16:57.153Z,0
2017-07-02T01:17:51.038Z,0
2017-07-02T01:18:52.083Z,0
2017-07-02T01:19:53.069Z,0
2017-07-02T01:20:47.263Z,0
2017-07-02T01:21:41.222Z,0
2017-07-02T01:22:41.371Z,0
2017-07-02T01:23:41.251Z,0
2017-07-02T01:24:30.482Z,0
2017-07-02T01:25:19.375Z,0
2017-07-02T01:26:08.455Z,0
2017-07-02T01:26:57.511Z,0
2017-07-02T01:27:51.644Z,0
2017-07-02T01:28:51.717Z,0
2017-07-02T01:29:51.715Z,0
2017-07-02T01:30:51.607Z,0
2017-07-02T01:31:46.665Z,0
2017-07-02T01:32:46.769Z,0
2017-07-02T01:33:46.820Z,0
2017-07-02T01:34:41.885Z,0
2017-07-02T01:35:36.775Z,0
2017-07-02T01:36:30.849Z,0
2017-07-02T01:37:30.968Z,0
2017-07-02T01:38:31.033Z,0
2017-07-02T01:39:31.487Z,0
2017-07-02T01:40:26.153Z,0
2017-07-02T01:41:21.051Z,0
2017-07-02T01:42:22.066Z,0
2017-07-02T01:43:17.109Z,0
2017-07-02T01:44:05.160Z,0
2017-07-02T01:44:54.204Z,0
2017-07-02T01:45:42.221Z,0
2017-07-02T01:46:30.338Z,0
2017-07-02T01:47:19.382Z,0
2017-07-02T01:48:14.377Z,0
2017-07-02T01:49:03.639Z,0
2017-07-02T01:49:52.341Z,0
2017-07-02T01:50:46.413Z,0
2017-07-02T01:51:47.496Z,0
2017-07-02T01:52:41.613Z,0
2017-07-02T01:53:41.501Z,0
2017-07-02T01:54:36.672Z,0
2017-07-02T01:55:31.702Z,0
2017-07-02T01:56:31.756Z,0
2017-07-02T01:57:25.797Z,0
2017-07-02T01:58:20.758Z,0
2017-07-02T01:59:08.776Z,0
2017-07-02T01:59:56.852Z,0
2017-07-02T02:00:56.896Z,0
2017-07-02T02:01:56.897Z,0
2017-07-02T02:02:51.119Z,0
2017-07-02T02:03:38.997Z,0
2017-07-02T02:04:34.049Z,0
2017-07-02T02:05:22.062Z,0
2017-07-02T02:06:17.110Z,0
2017-07-02T02:07:11.091Z,0
2017-07-02T02:08:00.231Z,0
2017-07-02T02:08:48.249Z,0
2017-07-02T02:09:42.186Z,0
2017-07-02T02:10:43.301Z,0
2017-07-02T02:11:43.343Z,0
2017-07-02T02:12:38.446Z,0
2017-07-02T02:13:38.490Z,0
2017-07-02T02:14:32.502Z,0
2017-07-02T02:15:32.574Z,0
2017-07-02T02:16:27.534Z,0
2017-07-02T02:17:21.525Z,0
2017-07-02T02:18:21.608Z,0
2017-07-02T02:19:21.741Z,0
2017-07-02T02:20:16.659Z,0
2017-07-02T02:21:11.738Z,4
2017-07-02T02:22:00.741Z,4
2017-07-02T02:22:55.680Z,4
2017-07-02T02:23:55.740Z,0
2017-07-02T02:24:45.012Z,0
2017-07-02T02:25:39.957Z,0
2017-07-02T02:26:28.842Z,0
2017-07-02T02:27:23.029Z,4
2017-07-02T02:28:11.075Z,4
2017-07-02T02:29:00.054Z,4
2017-07-02T02:29:54.059Z,4
2017-07-02T02:30:55.075Z,0
2017-07-02T02:31:56.118Z,4
2017-07-02T02:32:56.176Z,4
2017-07-02T02:33:57.194Z,4
2017-07-02T02:34:52.260Z,4
2017-07-02T02:35:40.463Z,4
2017-07-02T02:36:28.309Z,8
2017-07-02T02:37:22.339Z,4
2017-07-02T02:38:10.424Z,8
2017-07-02T02:39:10.426Z,4
2017-07-02T02:40:10.406Z,8
2017-07-02T02:40:58.609Z,8
2017-07-02T02:41:47.550Z,8
2017-07-02T02:42:47.565Z,8
2017-07-02T02:43:36.579Z,12
2017-07-02T02:44:25.718Z,12
2017-07-02T02:45:31.804Z,12
2017-07-02T02:46:26.789Z,16
2017-07-02T02:47:26.842Z,16
2017-07-02T02:48:21.777Z,20
2017-07-02T02:49:16.825Z,20
2017-07-02T02:50:16.802Z,24
2017-07-02T02:51:11.939Z,28
2017-07-02T02:52:12.051Z,32
2017-07-02T02:53:12.962Z,32
2017-07-02T02:54:13.086Z,40
2017-07-02T02:55:18.992Z,48
2017-07-02T02:56:13.053Z,52
2017-07-02T02:57:07.259Z,60
2017-07-02T02:57:56.175Z,68
2017-07-02T02:58:50.202Z,80
2017-07-02T02:59:38.277Z,88
2017-07-02T03:00:32.280Z,96
2017-07-02T03:01:32.297Z,112
2017-07-02T03:02:27.377Z,120
2017-07-02T03:03:21.485Z,136
2017-07-02T03:04:10.958Z,148
2017-07-02T03:04:59.359Z,164
2017-07-02T03:05:47.578Z,176
2017-07-02T03:06:36.583Z,188
2017-07-02T03:07:25.592Z,200
2017-07-02T03:08:26.810Z,216
2017-07-02T03:09:27.675Z,228
2017-07-02T03:10:27.723Z,248
2017-07-02T03:11:33.724Z,280
2017-07-02T03:12:27.731Z,304
2017-07-02T03:13:27.903Z,336
2017-07-02T03:14:21.839Z,372
2017-07-02T03:15:15.903Z,396
2017-07-02T03:16:09.950Z,416
2017-07-02T03:17:04.995Z,424
2017-07-02T03:17:59.986Z,428
2017-07-02T03:18:55.113Z,448
2017-07-02T03:19:43.023Z,472
2017-07-02T03:20:38.161Z,504
2017-07-02T03:21:38.065Z,524
2017-07-02T03:22:38.311Z,532
2017-07-02T03:23:26.156Z,520
2017-07-02T03:24:15.380Z,508
2017-07-02T03:25:15.419Z,504
2017-07-02T03:26:04.309Z,520
2017-07-02T03:26:58.478Z,540
2017-07-02T03:27:58.380Z,580
2017-07-02T03:28:53.345Z,628
2017-07-02T03:29:48.485Z,680
2017-07-02T03:30:42.512Z,728
2017-07-02T03:31:37.762Z,760
2017-07-02T03:32:26.619Z,792
2017-07-02T03:33:21.637Z,808
2017-07-02T03:34:15.660Z,836
2017-07-02T03:35:15.743Z,864
2017-07-02T03:36:10.840Z,896
2017-07-02T03:36:58.843Z,904
2017-07-02T03:37:58.863Z,912
2017-07-02T03:38:53.913Z,932
2017-07-02T03:39:47.893Z,980
2017-07-02T03:40:42.921Z,1024
2017-07-02T03:41:31.933Z,1052
2017-07-02T03:42:26.018Z,1104
2017-07-02T03:43:26.036Z,1164
2017-07-02T03:44:20.123Z,1216
2017-07-02T03:45:09.167Z,1276
2017-07-02T03:45:58.257Z,1344
2017-07-02T03:46:46.231Z,1412
2017-07-02T03:47:34.345Z,1464
2017-07-02T03:48:22.264Z,1492
2017-07-02T03:49:16.306Z,1528
2017-07-02T03:50:10.424Z,1604
2017-07-02T03:51:04.432Z,1708
2017-07-02T03:51:52.578Z,1800
2017-07-02T03:52:53.520Z,1916
2017-07-02T03:53:42.575Z,1960
2017-07-02T03:54:37.541Z,1992
2017-07-02T03:55:31.691Z,2040
2017-07-02T03:56:32.770Z,2060
2017-07-02T03:57:27.670Z,2064
2017-07-02T03:58:16.869Z,2104
2017-07-02T03:59:05.345Z,2176
2017-07-02T03:59:52.845Z,2236
2017-07-02T04:00:53.886Z,2292
2017-07-02T04:01:47.915Z,2252
2017-07-02T04:02:47.963Z,2128
2017-07-02T04:03:43.042Z,2040
2017-07-02T04:04:38.122Z,2012
2017-07-02T04:05:32.026Z,1972
2017-07-02T04:06:21.098Z,1936
2017-07-02T04:07:16.270Z,1892
2017-07-02T04:08:16.255Z,1872
2017-07-02T04:09:05.729Z,1920
2017-07-02T04:09:53.257Z,2004
2017-07-02T04:10:54.332Z,2088
2017-07-02T04:11:55.435Z,2188
2017-07-02T04:12:49.514Z,2276
2017-07-02T04:13:43.477Z,2316
2017-07-02T04:14:43.561Z,2284
2017-07-02T04:15:37.620Z,2280
2017-07-02T04:16:26.568Z,2328
2017-07-02T04:17:26.623Z,2420
2017-07-02T04:18:26.602Z,2424
2017-07-02T04:19:27.179Z,2444
2017-07-02T04:20:26.711Z,2508
2017-07-02T04:21:26.753Z,2656
2017-07-02T04:22:20.737Z,2744
2017-07-02T04:23:09.824Z,2800
2017-07-02T04:24:04.380Z,2884
2017-07-02T04:24:52.986Z,3020
2017-07-02T04:25:42.003Z,3100
2017-07-02T04:26:42.088Z,3212
2017-07-02T04:27:37.037Z,3380
2017-07-02T04:28:32.020Z,3284
2017-07-02T04:29:21.196Z,3144
2017-07-02T04:30:15.124Z,3144
2017-07-02T04:31:03.274Z,3264
2017-07-02T04:31:51.350Z,3384
2017-07-02T04:32:46.361Z,3448
2017-07-02T04:33:46.256Z,3556
2017-07-02T04:34:40.408Z,3708
2017-07-02T04:35:35.411Z,3856
2017-07-02T04:36:30.408Z,3852
2017-07-02T04:37:30.494Z,3856
2017-07-02T04:38:30.510Z,3916
2017-07-02T04:39:24.520Z,4040
2017-07-02T04:40:18.658Z,4168
2017-07-02T04:41:18.644Z,4236
2017-07-02T04:42:18.610Z,4328
2017-07-02T04:43:18.618Z,4548
2017-07-02T04:44:18.684Z,4868
2017-07-02T04:45:13.770Z,5052
2017-07-02T04:46:02.034Z,5136
2017-07-02T04:46:50.832Z,5096
2017-07-02T04:47:50.918Z,5052
2017-07-02T04:48:45.870Z,5176
2017-07-02T04:49:39.932Z,5360
2017-07-02T04:50:33.981Z,5532
2017-07-02T04:51:23.018Z,5660
2017-07-02T04:52:17.109Z,5836
2017-07-02T04:53:11.126Z,6076
2017-07-02T04:54:06.552Z,6320
2017-07-02T04:54:55.162Z,6476
2017-07-02T04:55:49.242Z,6668
2017-07-02T04:56:43.349Z,6876
2017-07-02T04:57:37.425Z,7048
2017-07-02T04:58:38.378Z,7200
2017-07-02T04:59:38.452Z,7308
2017-07-02T05:00:26.401Z,7368
2017-07-02T05:01:26.534Z,7516
2017-07-02T05:02:20.559Z,7604
2017-07-02T05:03:20.590Z,7512
2017-07-02T05:04:15.671Z,7276
2017-07-02T05:05:09.759Z,7020
2017-07-02T05:06:04.673Z,6752
2017-07-02T05:07:05.708Z,6624
2017-07-02T05:08:05.750Z,6660
2017-07-02T05:09:00.960Z,6768
2017-07-02T05:10:01.826Z,6772
2017-07-02T05:10:56.821Z,6728
2017-07-02T05:11:51.902Z,6680
2017-07-02T05:12:46.944Z,6672
2017-07-02T05:13:41.927Z,6692
2017-07-02T05:14:36.042Z,6752
2017-07-02T05:15:37.008Z,6832
2017-07-02T05:16:37.045Z,6984
2017-07-02T05:17:31.107Z,7132
2017-07-02T05:18:26.350Z,7336
2017-07-02T05:19:15.202Z,7444
2017-07-02T05:20:15.363Z,7524
2017-07-02T05:21:04.386Z,7548
2017-07-02T05:21:58.306Z,7516
2017-07-02T05:22:46.413Z,7528
2017-07-02T05:23:46.472Z,7512
2017-07-02T05:24:35.569Z,7524
2017-07-02T05:25:24.507Z,7556
2017-07-02T05:26:24.542Z,7484
2017-07-02T05:27:19.627Z,7484
2017-07-02T05:28:19.690Z,7544
2017-07-02T05:29:14.674Z,7572
2017-07-02T05:30:08.756Z,7692
2017-07-02T05:31:08.782Z,7832
2017-07-02T05:32:02.879Z,7912
2017-07-02T05:32:50.831Z,8076
2017-07-02T05:33:38.936Z,8272
2017-07-02T05:34:32.937Z,8564
2017-07-02T05:35:27.392Z,8880
2017-07-02T05:36:27.028Z,9440
2017-07-02T05:37:21.995Z,10076
2017-07-02T05:38:17.055Z,10828
2017-07-02T05:39:11.713Z,11724
2017-07-02T05:40:11.361Z,12608
2017-07-02T05:41:05.555Z,13556
2017-07-02T05:42:06.235Z,14712
2017-07-02T05:43:07.382Z,15824
2017-07-02T05:44:07.799Z,17152
2017-07-02T05:45:02.270Z,19200
2017-07-02T05:46:02.432Z,21792
2017-07-02T05:46:56.531Z,20768
2017-07-02T05:47:45.473Z,20608
2017-07-02T05:48:39.554Z,21376
2017-07-02T05:49:39.679Z,21216
2017-07-02T05:50:39.712Z,22176
2017-07-02T05:51:34.671Z,19680
2017-07-02T05:52:28.781Z,20000
2017-07-02T05:53:29.695Z,21888
2017-07-02T05:54:23.756Z,22208
2017-07-02T05:55:12.896Z,20384
2017-07-02T05:56:01.913Z,20768
2017-07-02T05:56:55.899Z,21216
2017-07-02T05:57:55.936Z,22816
2017-07-02T05:58:50.093Z,26144
2017-07-02T05:59:51.117Z,29312
2017-07-02T06:00:52.271Z,29472
2017-07-02T06:01:47.320Z,28320
2017-07-02T06:02:35.294Z,25888
2017-07-02T06:03:41.201Z,23648
2017-07-02T06:04:35.313Z,23616
2017-07-02T06:05:35.301Z,24224
2017-07-02T06:06:24.376Z,24000
2017-07-02T06:07:18.397Z,24032
2017-07-02T06:08:13.410Z,21696
2017-07-02T06:09:08.097Z,20672
2017-07-02T06:10:01.604Z,19936
2017-07-02T06:10:55.573Z,19392
2017-07-02T06:11:49.665Z,18976
2017-07-02T06:12:38.623Z,18368
2017-07-02T06:13:27.676Z,17632
2017-07-02T06:14:22.834Z,16576
2017-07-02T06:15:11.819Z,15356
2017-07-02T06:16:00.956Z,14092
2017-07-02T06:16:54.848Z,12732
2017-07-02T06:17:54.982Z,11616
2017-07-02T06:18:54.885Z,10916
2017-07-02T06:19:56.057Z,10480
2017-07-02T06:20:50.987Z,10312
2017-07-02T06:21:45.038Z,10172
2017-07-02T06:22:39.135Z,9980
2017-07-02T06:23:39.205Z,9684
2017-07-02T06:24:33.280Z,9536
2017-07-02T06:25:34.301Z,9500
2017-07-02T06:26:28.318Z,9724
2017-07-02T06:27:28.423Z,10020
2017-07-02T06:28:22.407Z,10436
2017-07-02T06:29:16.398Z,10956
2017-07-02T06:30:17.470Z,11800
2017-07-02T06:31:06.530Z,12508
2017-07-02T06:32:00.734Z,13204
2017-07-02T06:32:49.751Z,13848
2017-07-02T06:33:44.657Z,14720
2017-07-02T06:34:39.715Z,15312
2017-07-02T06:35:33.877Z,15940
2017-07-02T06:36:22.768Z,16832
2017-07-02T06:37:11.859Z,17920
2017-07-02T06:38:06.065Z,19264
2017-07-02T06:39:06.502Z,20576
2017-07-02T06:40:06.091Z,21120
2017-07-02T06:41:07.038Z,20480
2017-07-02T06:42:01.267Z,20160
2017-07-02T06:42:55.153Z,20256
2017-07-02T06:43:50.230Z,20576
2017-07-02T06:44:50.181Z,20704
2017-07-02T06:45:39.171Z,20544
2017-07-02T06:46:39.438Z,20288
2017-07-02T06:47:33.357Z,20512
2017-07-02T06:48:33.433Z,21088
2017-07-02T06:49:21.434Z,21632
2017-07-02T06:50:15.603Z,21120
2017-07-02T06:51:09.554Z,19264
2017-07-02T06:52:04.510Z,16832
2017-07-02T06:52:52.674Z,15340
2017-07-02T06:53:41.735Z,14684
2017-07-02T06:54:35.715Z,14284
2017-07-02T06:55:30.787Z,13600
2017-07-02T06:56:25.805Z,12696
2017-07-02T06:57:19.830Z,12368
2017-07-02T06:58:20.089Z,13472
2017-07-02T06:59:14.569Z,14720
2017-07-02T07:00:14.135Z,15444
2017-07-02T07:01:14.047Z,15180
2017-07-02T07:02:14.087Z,13872
2017-07-02T07:03:09.030Z,12520
2017-07-02T07:04:03.232Z,11612
2017-07-02T07:04:52.241Z,11336
2017-07-02T07:05:46.275Z,11524
2017-07-02T07:06:41.269Z,11552
2017-07-02T07:07:36.322Z,11292
2017-07-02T07:08:25.445Z,10876
2017-07-02T07:09:19.367Z,10824
2017-07-02T07:10:08.593Z,11408
2017-07-02T07:11:08.626Z,13064
2017-07-02T07:12:03.581Z,15280
2017-07-02T07:12:58.546Z,17632
2017-07-02T07:13:58.705Z,18208
2017-07-02T07:14:53.877Z,17440
2017-07-02T07:15:42.833Z,15780
2017-07-02T07:16:48.809Z,13588
2017-07-02T07:17:43.849Z,10848
2017-07-02T07:18:37.860Z,8556
2017-07-02T07:19:32.960Z,6424
2017-07-02T07:20:32.922Z,4772
2017-07-02T07:21:27.020Z,3820
2017-07-02T07:22:26.997Z,3424
2017-07-02T07:23:16.131Z,3540
2017-07-02T07:24:05.253Z,4080
2017-07-02T07:24:59.141Z,4916
2017-07-02T07:25:54.207Z,5784
2017-07-02T07:26:42.290Z,6812
2017-07-02T07:27:31.365Z,8324
2017-07-02T07:28:25.412Z,10652
2017-07-02T07:29:19.325Z,13852
2017-07-02T07:30:19.413Z,17344
2017-07-02T07:31:14.631Z,19840
2017-07-02T07:32:09.464Z,21152
2017-07-02T07:32:58.565Z,20416
2017-07-02T07:33:52.572Z,18560
2017-07-02T07:34:40.629Z,18368
2017-07-02T07:35:34.691Z,18816
2017-07-02T07:36:29.786Z,18432
2017-07-02T07:37:24.780Z,17632
2017-07-02T07:38:18.799Z,16736
2017-07-02T07:39:08.396Z,15880
2017-07-02T07:39:56.997Z,14444
2017-07-02T07:40:56.987Z,12940
2017-07-02T07:41:52.053Z,11064
2017-07-02T07:42:46.041Z,9872
2017-07-02T07:43:46.088Z,9168
2017-07-02T07:44:41.148Z,8880
2017-07-02T07:45:36.347Z,8692
2017-07-02T07:46:25.214Z,8596
2017-07-02T07:47:19.339Z,8380
2017-07-02T07:48:14.383Z,8640
2017-07-02T07:49:08.918Z,8712
2017-07-02T07:50:02.444Z,8060
2017-07-02T07:50:56.445Z,7376
2017-07-02T07:51:45.533Z,7008
2017-07-02T07:52:34.647Z,6928
2017-07-02T07:53:29.574Z,7472
2017-07-02T07:54:23.667Z,8456
2017-07-02T07:55:18.727Z,8924
2017-07-02T07:56:07.838Z,10236
2017-07-02T07:57:01.820Z,11248
2017-07-02T07:57:56.870Z,11704
2017-07-02T07:58:57.757Z,11320
2017-07-02T07:59:46.973Z,10276
2017-07-02T08:00:41.894Z,9724
2017-07-02T08:01:35.907Z,9336
2017-07-02T08:02:25.069Z,10440
2017-07-02T08:03:14.058Z,10380
2017-07-02T08:04:02.203Z,8848
2017-07-02T08:04:56.188Z,8828
2017-07-02T08:05:56.251Z,7524
2017-07-02T08:06:51.279Z,6708
2017-07-02T08:07:46.300Z,9472
2017-07-02T08:08:46.384Z,12996
2017-07-02T08:09:41.395Z,14148
2017-07-02T08:10:35.496Z,14344
2017-07-02T08:11:30.504Z,14912
2017-07-02T08:12:24.546Z,17280
2017-07-02T08:13:19.561Z,18752
2017-07-02T08:14:08.299Z,18720
2017-07-02T08:15:08.615Z,17120
2017-07-02T08:16:08.736Z,17440
2017-07-02T08:17:03.666Z,18816
2017-07-02T08:18:03.877Z,19008
2017-07-02T08:19:03.824Z,18560
2017-07-02T08:19:58.040Z,17952
2017-07-02T08:20:52.881Z,16264
2017-07-02T08:21:41.831Z,15080
2017-07-02T08:22:37.081Z,13940
2017-07-02T08:23:26.027Z,13612
2017-07-02T08:24:21.042Z,14060
2017-07-02T08:25:15.051Z,14400
2017-07-02T08:26:10.196Z,15696
2017-07-02T08:27:04.201Z,19168
2017-07-02T08:27:53.243Z,20672
2017-07-02T08:28:47.384Z,18848
2017-07-02T08:29:41.320Z,17216
2017-07-02T08:30:42.418Z,18944
2017-07-02T08:31:36.371Z,20512
2017-07-02T08:32:24.491Z,19232
2017-07-02T08:33:25.494Z,14448
2017-07-02T08:34:19.692Z,12816
2017-07-02T08:35:19.824Z,11280
2017-07-02T08:36:13.767Z,11716
2017-07-02T08:37:13.814Z,12552
2017-07-02T08:38:13.672Z,14816
2017-07-02T08:39:14.297Z,15072
2017-07-02T08:40:07.881Z,15252
2017-07-02T08:41:02.950Z,14608
2017-07-02T08:42:02.912Z,14404
2017-07-02T08:42:56.978Z,12520
2017-07-02T08:43:57.059Z,11360
2017-07-02T08:44:52.008Z,10776
2017-07-02T08:45:40.065Z,11376
2017-07-02T08:46:29.155Z,14684
2017-07-02T08:47:29.270Z,19360
2017-07-02T08:48:24.228Z,22816
2017-07-02T08:49:18.221Z,25120
2017-07-02T08:50:18.303Z,25344
2017-07-02T08:51:12.370Z,23584
2017-07-02T08:52:06.269Z,18560
2017-07-02T08:53:06.417Z,12204
2017-07-02T08:53:55.435Z,9484
2017-07-02T08:54:43.442Z,8800
2017-07-02T08:55:37.578Z,8576
2017-07-02T08:56:31.582Z,8764
2017-07-02T08:57:26.701Z,9800
2017-07-02T08:58:15.694Z,12428
2017-07-02T08:59:16.196Z,15544
2017-07-02T09:00:04.764Z,17504
2017-07-02T09:00:58.870Z,18688
2017-07-02T09:01:58.856Z,18592
2017-07-02T09:02:53.009Z,19168
2017-07-02T09:03:53.946Z,18272
2017-07-02T09:04:54.085Z,17408
2017-07-02T09:05:47.956Z,17952
2017-07-02T09:06:48.035Z,16680
2017-07-02T09:07:36.104Z,14584
2017-07-02T09:08:37.142Z,14176
2017-07-02T09:09:37.231Z,15104
2017-07-02T09:10:31.297Z,15484
2017-07-02T09:11:26.196Z,16632
2017-07-02T09:12:20.300Z,17856
2017-07-02T09:13:14.332Z,17536
2017-07-02T09:14:08.743Z,15728
2017-07-02T09:14:57.478Z,16484
2017-07-02T09:15:51.544Z,18144
2017-07-02T09:16:45.568Z,15560
2017-07-02T09:17:45.537Z,17696
2017-07-02T09:18:34.743Z,16104
2017-07-02T09:19:28.661Z,16732
2017-07-02T09:20:28.762Z,15352
2017-07-02T09:21:23.649Z,14380
2017-07-02T09:22:17.834Z,15328
2017-07-02T09:23:17.786Z,12868
2017-07-02T09:24:12.502Z,13196
2017-07-02T09:25:06.933Z,17568
2017-07-02T09:25:55.069Z,16860
2017-07-02T09:26:48.980Z,15828
2017-07-02T09:27:49.110Z,15432
2017-07-02T09:28:43.165Z,12796
2017-07-02T09:29:38.238Z,15404
2017-07-02T09:30:32.068Z,15876
2017-07-02T09:31:26.258Z,21632
2017-07-02T09:32:26.273Z,21824
2017-07-02T09:33:20.350Z,17632
2017-07-02T09:34:08.392Z,19072
2017-07-02T09:35:02.464Z,19744
2017-07-02T09:35:57.455Z,18016
2017-07-02T09:36:52.524Z,21632
2017-07-02T09:37:47.551Z,21376
2017-07-02T09:38:36.512Z,20672
2017-07-02T09:39:30.609Z,22784
2017-07-02T09:40:18.708Z,23008
2017-07-02T09:41:12.718Z,20736
2017-07-02T09:42:00.912Z,20480
2017-07-02T09:43:00.845Z,21696
2017-07-02T09:43:54.849Z,21600
2017-07-02T09:44:49.945Z,22560
2017-07-02T09:45:37.937Z,26016
2017-07-02T09:46:31.974Z,22656
2017-07-02T09:47:33.155Z,21632
2017-07-02T09:48:28.075Z,20128
2017-07-02T09:49:23.149Z,16608
2017-07-02T09:50:17.122Z,16372
2017-07-02T09:51:06.288Z,17280
2017-07-02T09:51:54.201Z,14732
2017-07-02T09:52:43.348Z,14800
2017-07-02T09:53:37.388Z,17472
2017-07-02T09:54:37.452Z,19872
2017-07-02T09:55:37.416Z,17184
2017-07-02T09:56:37.489Z,16384
2017-07-02T09:57:25.527Z,17536
2017-07-02T09:58:20.880Z,15868
2017-07-02T09:59:15.212Z,16216
2017-07-02T10:00:08.611Z,19200
2017-07-02T10:01:03.830Z,19584
2017-07-02T10:01:57.794Z,17056
2017-07-02T10:02:57.847Z,22880
2017-07-02T10:03:45.866Z,23232
2017-07-02T10:04:46.145Z,25856
2017-07-02T10:05:39.977Z,26272
2017-07-02T10:06:33.977Z,22112
2017-07-02T10:07:22.078Z,18144
2017-07-02T10:08:11.177Z,17600
2017-07-02T10:09:12.795Z,20576
2017-07-02T10:10:07.215Z,20096
2017-07-02T10:10:56.258Z,19200
2017-07-02T10:11:50.260Z,22880
2017-07-02T10:12:50.324Z,23584
2017-07-02T10:13:44.347Z,23488
2017-07-02T10:14:44.684Z,23008
2017-07-02T10:15:39.479Z,26496
2017-07-02T10:16:28.534Z,27808
2017-07-02T10:17:23.492Z,25472
2017-07-02T10:18:18.591Z,23104
2017-07-02T10:19:20.126Z,22880
2017-07-02T10:20:13.704Z,20896
2017-07-02T10:21:02.761Z,21024
2017-07-02T10:21:50.752Z,22080
2017-07-02T10:22:38.761Z,21952
2017-07-02T10:23:27.862Z,19552
2017-07-02T10:24:22.949Z,15520
2017-07-02T10:25:22.984Z,12524
2017-07-02T10:26:17.068Z,13656
2017-07-02T10:27:12.027Z,13504
2017-07-02T10:28:12.137Z,14328
2017-07-02T10:29:13.772Z,14396
2017-07-02T10:30:13.171Z,17792
2017-07-02T10:31:13.337Z,15688
2017-07-02T10:32:13.280Z,12996
2017-07-02T10:33:02.424Z,10816
2017-07-02T10:33:56.301Z,12056
2017-07-02T10:34:45.564Z,12628
2017-07-02T10:35:39.485Z,14336
2017-07-02T10:36:34.529Z,12356
2017-07-02T10:37:34.552Z,11212
2017-07-02T10:38:29.602Z,8364
2017-07-02T10:39:19.224Z,7072
2017-07-02T10:40:18.731Z,6788
2017-07-02T10:41:12.686Z,7524
2017-07-02T10:42:06.715Z,8864
2017-07-02T10:43:00.839Z,11024
2017-07-02T10:43:55.855Z,18144
2017-07-02T10:44:49.825Z,15796
2017-07-02T10:45:39.011Z,10024
2017-07-02T10:46:39.034Z,8656
2017-07-02T10:47:33.193Z,8868
2017-07-02T10:48:22.084Z,11604
2017-07-02T10:49:16.693Z,12816
2017-07-02T10:50:17.147Z,9376
2017-07-02T10:51:11.201Z,8396
2017-07-02T10:52:05.260Z,7524
2017-07-02T10:52:54.394Z,7420
2017-07-02T10:53:55.399Z,7140
2017-07-02T10:54:50.367Z,6832
2017-07-02T10:55:39.425Z,6496
2017-07-02T10:56:28.451Z,7112
2017-07-02T10:57:22.464Z,7796
2017-07-02T10:58:11.600Z,6992
2017-07-02T10:59:05.613Z,7200
2017-07-02T10:59:53.661Z,9400
2017-07-02T11:00:42.754Z,16092
2017-07-02T11:01:37.794Z,19296
2017-07-02T11:02:32.782Z,16264
2017-07-02T11:03:27.015Z,13376
2017-07-02T11:04:26.845Z,16172
2017-07-02T11:05:20.901Z,15964
2017-07-02T11:06:09.072Z,15844
2017-07-02T11:06:58.023Z,15476
2017-07-02T11:07:52.039Z,12368
2017-07-02T11:08:40.128Z,13284
2017-07-02T11:09:35.103Z,16048
2017-07-02T11:10:35.149Z,13448
2017-07-02T11:11:29.190Z,15956
2017-07-02T11:12:18.190Z,18304
2017-07-02T11:13:12.325Z,14788
2017-07-02T11:14:06.445Z,14080
2017-07-02T11:14:54.476Z,15708
2017-07-02T11:15:43.459Z,17152
2017-07-02T11:16:32.504Z,15712
2017-07-02T11:17:20.529Z,18816
2017-07-02T11:18:21.674Z,20608
2017-07-02T11:19:16.327Z,20672
2017-07-02T11:20:09.712Z,21024
2017-07-02T11:20:58.702Z,21696
2017-07-02T11:21:58.751Z,21344
2017-07-02T11:22:52.889Z,21792
2017-07-02T11:23:52.902Z,22464
2017-07-02T11:24:46.992Z,23104
2017-07-02T11:25:35.898Z,23104
2017-07-02T11:26:24.999Z,23392
2017-07-02T11:27:14.094Z,23968
2017-07-02T11:28:02.058Z,25536
2017-07-02T11:28:50.095Z,27104
2017-07-02T11:29:38.175Z,28000
2017-07-02T11:30:32.531Z,30240
2017-07-02T11:31:21.239Z,32480
2017-07-02T11:32:22.397Z,34304
2017-07-02T11:33:10.316Z,35616
2017-07-02T11:34:04.503Z,35168
2017-07-02T11:34:58.457Z,33152
2017-07-02T11:35:47.795Z,31232
2017-07-02T11:36:41.594Z,29600
2017-07-02T11:37:36.552Z,28000
2017-07-02T11:38:24.773Z,26464
2017-07-02T11:39:14.327Z,24512
2017-07-02T11:40:01.824Z,24416
2017-07-02T11:40:56.873Z,25920
2017-07-02T11:41:45.863Z,27776
2017-07-02T11:42:39.928Z,28000
2017-07-02T11:43:33.956Z,27968
2017-07-02T11:44:22.957Z,27008
2017-07-02T11:45:17.107Z,24960
2017-07-02T11:46:11.130Z,24448
2017-07-02T11:47:00.107Z,24864
2017-07-02T11:47:49.123Z,25216
2017-07-02T11:48:44.229Z,24576
2017-07-02T11:49:39.287Z,24640
2017-07-02T11:50:34.305Z,26240
2017-07-02T11:51:23.706Z,28608
2017-07-02T11:52:17.382Z,30880
2017-07-02T11:53:17.442Z,32128
2017-07-02T11:54:11.595Z,31968
2017-07-02T11:55:11.654Z,31520
2017-07-02T11:56:05.560Z,31680
2017-07-02T11:56:59.616Z,33056
2017-07-02T11:57:53.617Z,36320
2017-07-02T11:58:54.221Z,42976
2017-07-02T11:59:48.771Z,44672
2017-07-02T12:00:42.873Z,45568
2017-07-02T12:01:36.876Z,44224
2017-07-02T12:02:32.008Z,43264
2017-07-02T12:03:26.882Z,38720
2017-07-02T12:04:21.712Z,20832
2017-07-02T12:05:21.174Z,32896
2017-07-02T12:06:16.033Z,30912
2017-07-02T12:07:11.354Z,29568
2017-07-02T12:08:05.364Z,24032
2017-07-02T12:09:00.164Z,18944
2017-07-02T12:10:00.337Z,28800
2017-07-02T12:10:54.362Z,30080